Time;durP1;ratioP1;P1;durP2;ratioP2;P2;SDS_P1;SDS_P2;PMS_P1;PMS_P2;Temp;Humidity;BMP_temperature;BMP_pressure;BME280_temperature;BME280_humidity;BME280_pressure;Samples;Min_cycle;Max_cycle;Signal;HPM_P1;HPM_P2
2021/12/28 00:01:21;;;;;;;2.20;1.50;;;22.10;63.90;;;;;;5076044;28;20437;-66
2021/12/28 00:03:48;;;;;;;1.83;1.67;;;22.10;63.80;;;;;;5075821;28;20437;-65
2021/12/28 00:06:16;;;;;;;1.50;1.40;;;22.10;63.70;;;;;;5075978;28;20445;-64
2021/12/28 00:08:43;;;;;;;1.63;1.50;;;22.10;63.80;;;;;;5075820;28;20432;-64
2021/12/28 00:11:10;;;;;;;1.90;1.70;;;22.20;63.80;;;;;;5075702;28;20444;-64
2021/12/28 00:13:38;;;;;;;1.40;1.30;;;22.20;63.70;;;;;;5075667;28;20947;-66
2021/12/28 00:16:30;;;;;;;1.80;1.70;;;22.10;63.60;;;;;;5075578;28;20472;-66
2021/12/28 00:18:58;;;;;;;1.70;1.03;;;22.20;63.60;;;;;;5075049;28;20440;-66
2021/12/28 00:21:25;;;;;;;2.37;1.20;;;22.20;63.70;;;;;;5075284;28;20445;-66
2021/12/28 00:23:52;;;;;;;1.30;1.20;;;22.20;63.60;;;;;;5075617;28;20432;-66
2021/12/28 00:26:20;;;;;;;1.20;1.10;;;22.20;63.50;;;;;;5075488;28;20443;-65
2021/12/28 00:28:48;;;;;;;2.00;1.73;;;22.10;63.40;;;;;;5075517;28;20440;-66
2021/12/28 00:31:16;;;;;;;1.30;1.20;;;22.20;63.50;;;;;;5075449;28;20844;-66
2021/12/28 00:33:44;;;;;;;1.83;1.43;;;22.20;63.50;;;;;;5075509;28;20437;-66
2021/12/28 00:36:11;;;;;;;1.50;1.40;;;22.20;63.50;;;;;;5075305;28;20437;-65
2021/12/28 00:38:39;;;;;;;1.53;1.43;;;22.20;63.40;;;;;;5075283;28;20445;-66
2021/12/28 00:41:05;;;;;;;1.40;1.30;;;22.20;63.40;;;;;;5075210;28;20443;-66
2021/12/28 00:43:33;;;;;;;1.27;1.17;;;22.20;63.40;;;;;;5075151;28;20432;-66
2021/12/28 00:46:01;;;;;;;1.37;1.27;;;22.20;63.50;;;;;;5075302;28;20959;-64
2021/12/28 00:48:29;;;;;;;1.23;1.13;;;22.20;63.40;;;;;;5075110;28;20433;-66
2021/12/28 00:50:57;;;;;;;1.23;1.07;;;22.20;63.40;;;;;;5075039;28;20444;-66
2021/12/28 00:53:23;;;;;;;1.20;1.10;;;22.20;63.40;;;;;;5074930;28;20475;-66
2021/12/28 00:55:50;;;;;;;1.37;1.07;;;22.20;63.30;;;;;;5074927;28;20787;-66
2021/12/28 00:58:17;;;;;;;1.50;1.37;;;22.20;63.30;;;;;;5074903;28;20488;-63
2021/12/28 01:00:45;;;;;;;1.20;1.00;;;22.20;63.30;;;;;;5074996;28;20441;-64
2021/12/28 01:03:12;;;;;;;1.27;1.17;;;22.20;63.30;;;;;;5074899;28;20447;-66
2021/12/28 01:05:41;;;;;;;1.10;0.80;;;22.20;63.40;;;;;;5074843;28;20433;-65
2021/12/28 01:08:08;;;;;;;1.23;1.13;;;22.20;63.40;;;;;;5074596;28;20442;-65
2021/12/28 01:10:38;;;;;;;1.10;1.00;;;22.20;63.30;;;;;;5074672;28;20441;-64
2021/12/28 01:13:05;;;;;;;1.30;1.20;;;22.20;63.40;;;;;;5074616;28;20835;-64
2021/12/28 01:15:33;;;;;;;1.20;1.10;;;22.20;63.40;;;;;;5074394;28;20460;-64
2021/12/28 01:18:00;;;;;;;1.10;0.90;;;22.20;63.40;;;;;;5074196;28;20496;-64
2021/12/28 01:20:27;;;;;;;1.17;1.00;;;22.20;63.40;;;;;;5074362;28;20433;-66
2021/12/28 01:22:55;;;;;;;1.13;1.03;;;22.20;63.40;;;;;;5074284;28;20433;-64
2021/12/28 01:25:23;;;;;;;1.30;1.13;;;22.20;63.40;;;;;;5074261;28;20936;-65
2021/12/28 01:27:50;;;;;;;1.20;1.10;;;22.20;63.40;;;;;;5074153;28;20932;-64
2021/12/28 01:30:19;;;;;;;1.33;1.03;;;22.20;63.40;;;;;;5074252;28;20751;-64
2021/12/28 01:32:46;;;;;;;1.40;1.00;;;22.10;63.30;;;;;;5074421;28;20449;-64
2021/12/28 01:35:14;;;;;;;1.20;1.00;;;22.20;63.40;;;;;;5074255;28;20923;-64
2021/12/28 01:37:42;;;;;;;1.30;1.10;;;22.10;63.30;;;;;;5074082;28;20484;-66
2021/12/28 01:40:13;;;;;;;1.07;0.90;;;22.20;63.40;;;;;;5074177;28;20830;-66
2021/12/28 01:42:58;;;;;;;1.20;1.00;;;22.20;63.40;;;;;;5074165;28;20494;-66
2021/12/28 01:45:42;;;;;;;1.50;1.03;;;22.20;63.30;;;;;;5073825;28;20469;-63
2021/12/28 01:48:10;;;;;;;1.10;1.00;;;22.20;63.40;;;;;;5073901;28;20447;-64
2021/12/28 01:50:37;;;;;;;1.20;1.10;;;22.10;63.40;;;;;;5073817;28;20437;-64
2021/12/28 01:53:05;;;;;;;1.83;1.10;;;22.10;63.30;;;;;;5074051;28;20433;-64
2021/12/28 01:55:34;;;;;;;1.00;0.80;;;22.20;63.40;;;;;;5073787;28;20433;-66
2021/12/28 01:58:01;;;;;;;1.20;1.00;;;22.20;63.40;;;;;;5073847;28;20502;-66
2021/12/28 02:00:28;;;;;;;1.20;1.10;;;22.20;63.40;;;;;;5073639;28;20440;-64
2021/12/28 02:02:55;;;;;;;1.20;0.90;;;22.20;63.40;;;;;;5073541;28;20437;-64
2021/12/28 02:05:22;;;;;;;1.30;1.10;;;22.10;63.30;;;;;;5073595;28;20437;-64
2021/12/28 02:07:49;;;;;;;1.00;0.80;;;22.10;63.30;;;;;;5073666;28;20440;-64
2021/12/28 02:10:16;;;;;;;1.20;1.00;;;22.20;63.40;;;;;;5073678;28;20440;-66
2021/12/28 02:12:44;;;;;;;1.20;1.00;;;22.10;63.30;;;;;;5073438;28;20429;-64
2021/12/28 02:15:13;;;;;;;1.10;0.80;;;22.20;63.40;;;;;;5073321;28;20809;-64
2021/12/28 02:17:41;;;;;;;1.00;0.90;;;22.20;63.40;;;;;;5073019;28;20483;-64
2021/12/28 02:20:11;;;;;;;1.00;0.80;;;22.10;63.30;;;;;;5073443;28;20448;-64
2021/12/28 02:22:38;;;;;;;1.10;0.80;;;22.20;63.40;;;;;;5073283;28;20527;-64
2021/12/28 02:25:06;;;;;;;1.10;0.93;;;22.20;63.40;;;;;;5073391;28;20447;-64
2021/12/28 02:27:32;;;;;;;1.10;1.00;;;22.20;63.40;;;;;;5073420;28;20447;-65
2021/12/28 02:29:59;;;;;;;1.10;0.97;;;22.20;63.40;;;;;;5073413;28;20441;-64
2021/12/28 02:32:27;;;;;;;1.20;0.90;;;22.20;63.40;;;;;;5073329;28;20440;-64
2021/12/28 02:34:55;;;;;;;1.03;0.80;;;22.10;63.20;;;;;;5073273;28;20494;-63
2021/12/28 02:37:23;;;;;;;1.00;0.90;;;22.10;63.20;;;;;;5073272;28;20516;-66
2021/12/28 02:39:50;;;;;;;1.00;0.80;;;22.20;63.40;;;;;;5073361;28;20436;-64
2021/12/28 02:42:18;;;;;;;1.30;1.00;;;22.20;63.40;;;;;;5072661;28;20439;-66
2021/12/28 02:44:44;;;;;;;1.10;0.90;;;22.10;63.30;;;;;;5073119;28;20794;-66
2021/12/28 02:47:16;;;;;;;1.23;1.13;;;22.20;63.40;;;;;;5073082;28;20452;-64
2021/12/28 02:49:43;;;;;;;1.20;1.00;;;22.20;63.40;;;;;;5073134;28;20440;-65
2021/12/28 02:52:10;;;;;;;1.00;0.80;;;22.20;63.40;;;;;;5073136;28;20456;-64
2021/12/28 02:54:40;;;;;;;1.17;0.90;;;22.20;63.40;;;;;;5073301;28;20436;-65
2021/12/28 02:57:07;;;;;;;1.10;0.90;;;22.20;63.40;;;;;;5073082;28;20475;-65
2021/12/28 02:59:34;;;;;;;1.10;0.83;;;22.20;63.40;;;;;;5072992;28;20441;-66
2021/12/28 03:02:00;;;;;;;1.00;0.90;;;22.20;63.40;;;;;;5072986;28;20432;-64
2021/12/28 03:04:27;;;;;;;1.07;0.80;;;22.20;63.40;;;;;;5072997;28;20846;-64
2021/12/28 03:06:54;;;;;;;1.20;0.80;;;22.20;63.40;;;;;;5072930;28;20447;-64
2021/12/28 03:09:21;;;;;;;1.00;0.90;;;22.20;63.40;;;;;;5073040;28;20443;-64
2021/12/28 03:11:49;;;;;;;1.20;0.90;;;22.20;63.40;;;;;;5072985;28;20445;-64
2021/12/28 03:14:16;;;;;;;1.00;0.80;;;22.20;63.40;;;;;;5072959;28;20443;-66
2021/12/28 03:16:43;;;;;;;1.87;0.90;;;22.20;63.40;;;;;;5072546;28;20472;-64
2021/12/28 03:19:10;;;;;;;1.00;0.90;;;22.20;63.30;;;;;;5072829;28;21016;-64
2021/12/28 03:21:38;;;;;;;1.00;0.80;;;22.20;63.40;;;;;;5072878;28;20438;-65
2021/12/28 03:24:06;;;;;;;1.20;0.90;;;22.20;63.40;;;;;;5072897;28;20509;-65
2021/12/28 03:26:33;;;;;;;1.20;1.00;;;22.20;63.40;;;;;;5072749;28;20831;-64
2021/12/28 03:29:01;;;;;;;1.30;0.97;;;22.20;63.40;;;;;;5072738;28;20440;-64
2021/12/28 03:31:28;;;;;;;1.00;0.83;;;22.20;63.30;;;;;;5072792;28;20433;-66
2021/12/28 03:33:56;;;;;;;1.10;0.97;;;22.20;63.40;;;;;;5072753;28;20490;-64
2021/12/28 03:36:24;;;;;;;1.10;0.80;;;22.20;63.40;;;;;;5072814;28;20498;-64
2021/12/28 03:38:52;;;;;;;1.30;0.90;;;22.20;63.40;;;;;;5072713;28;20484;-64
2021/12/28 03:41:21;;;;;;;1.77;1.00;;;22.20;63.40;;;;;;5072578;28;20443;-64
2021/12/28 03:43:50;;;;;;;1.77;1.10;;;22.20;63.40;;;;;;5072763;28;20792;-66
2021/12/28 03:46:18;;;;;;;1.10;0.90;;;22.20;63.40;;;;;;5072638;28;20460;-63
2021/12/28 03:48:46;;;;;;;1.10;0.90;;;22.20;63.40;;;;;;5072514;28;20452;-66
2021/12/28 03:51:13;;;;;;;1.20;0.87;;;22.20;63.40;;;;;;5072530;28;20444;-64
2021/12/28 03:53:40;;;;;;;1.07;0.80;;;22.20;63.40;;;;;;5072675;28;20442;-66
2021/12/28 03:56:08;;;;;;;1.20;1.00;;;22.20;63.40;;;;;;5075410;28;20432;-65
2021/12/28 03:58:36;;;;;;;1.20;1.00;;;22.20;63.40;;;;;;5075929;28;20830;-65
2021/12/28 04:01:03;;;;;;;1.10;0.80;;;22.10;63.30;;;;;;5076132;28;20440;-64
2021/12/28 04:03:32;;;;;;;2.20;1.07;;;22.20;63.40;;;;;;5075818;28;20849;-64
2021/12/28 04:05:59;;;;;;;1.07;0.80;;;22.20;63.40;;;;;;5076060;28;20437;-64
2021/12/28 04:08:28;;;;;;;1.10;0.90;;;22.20;63.40;;;;;;5075771;28;20463;-64
2021/12/28 04:11:02;;;;;;;1.00;0.80;;;22.20;63.40;;;;;;5075899;28;20440;-64
2021/12/28 04:13:29;;;;;;;1.00;0.80;;;22.20;63.40;;;;;;5075710;28;20445;-64
2021/12/28 04:15:55;;;;;;;1.10;0.90;;;22.20;63.40;;;;;;5075682;28;20977;-65
2021/12/28 04:18:22;;;;;;;1.23;1.00;;;22.20;63.40;;;;;;5075385;28;20488;-66
2021/12/28 04:20:50;;;;;;;1.00;0.80;;;22.20;63.40;;;;;;5075600;28;20443;-64
2021/12/28 04:23:17;;;;;;;1.30;1.13;;;22.20;63.40;;;;;;5075564;28;20444;-66
2021/12/28 04:25:44;;;;;;;1.00;0.90;;;22.20;63.40;;;;;;5075608;28;20467;-64
2021/12/28 04:28:11;;;;;;;1.00;0.90;;;22.20;63.40;;;;;;5075630;28;20466;-66
2021/12/28 04:30:38;;;;;;;1.10;0.83;;;22.20;63.40;;;;;;5075549;28;20433;-66
2021/12/28 04:33:05;;;;;;;1.00;0.80;;;22.20;63.40;;;;;;5075370;28;20532;-64
2021/12/28 04:35:32;;;;;;;1.00;0.80;;;22.20;63.50;;;;;;5075511;28;20764;-64
2021/12/28 04:38:00;;;;;;;1.00;0.80;;;22.20;63.40;;;;;;5075188;28;20476;-64
2021/12/28 04:40:26;;;;;;;1.17;0.83;;;22.20;63.40;;;;;;5075372;28;20900;-64
2021/12/28 04:42:53;;;;;;;1.10;0.80;;;22.20;63.50;;;;;;5075311;28;20443;-64
2021/12/28 04:45:20;;;;;;;1.50;0.90;;;22.20;63.50;;;;;;5075125;28;20460;-64
2021/12/28 04:47:48;;;;;;;1.10;0.90;;;22.20;64.40;;;;;;5075273;28;20453;-64
2021/12/28 04:50:15;;;;;;;1.10;0.90;;;22.20;63.50;;;;;;5075498;28;20437;-63
2021/12/28 04:52:42;;;;;;;1.33;0.93;;;22.20;63.50;;;;;;5075357;28;20440;-65
2021/12/28 04:55:18;;;;;;;1.10;0.90;;;22.20;63.50;;;;;;5075232;28;20500;-63
2021/12/28 04:57:46;;;;;;;1.67;0.90;;;22.20;63.50;;;;;;5074905;28;20464;-64
2021/12/28 05:00:18;;;;;;;1.00;0.80;;;22.20;63.50;;;;;;5075002;28;20441;-63
2021/12/28 05:02:45;;;;;;;1.10;0.93;;;22.20;63.50;;;;;;5074915;28;20454;-64
2021/12/28 05:05:12;;;;;;;1.10;0.93;;;22.20;63.50;;;;;;5074437;28;20441;-66
2021/12/28 05:07:40;;;;;;;1.10;0.77;;;22.20;64.40;;;;;;5074913;28;20515;-66
2021/12/28 05:10:08;;;;;;;1.60;1.00;;;22.20;63.50;;;;;;5074750;28;20777;-66
2021/12/28 05:12:36;;;;;;;1.27;0.90;;;22.20;63.50;;;;;;5074921;28;20452;-66
2021/12/28 05:15:03;;;;;;;1.40;1.00;;;22.20;63.50;;;;;;5074453;28;20472;-64
2021/12/28 05:17:30;;;;;;;1.20;1.10;;;22.20;63.50;;;;;;5074517;28;20483;-64
2021/12/28 05:19:57;;;;;;;1.30;0.90;;;22.20;63.50;;;;;;5074463;28;20452;-66
2021/12/28 05:22:23;;;;;;;1.33;0.90;;;22.20;63.50;;;;;;5074551;28;20441;-66
2021/12/28 05:24:51;;;;;;;1.17;0.97;;;22.20;63.50;;;;;;5074272;28;20460;-64
2021/12/28 05:27:17;;;;;;;1.10;0.90;;;22.20;63.50;;;;;;5074529;28;20444;-64
2021/12/28 05:29:45;;;;;;;1.10;0.90;;;22.20;63.50;;;;;;5074431;28;20449;-65
2021/12/28 05:32:12;;;;;;;1.30;0.90;;;22.20;63.50;;;;;;5074333;28;20445;-66
2021/12/28 05:34:39;;;;;;;1.30;1.00;;;22.20;63.50;;;;;;5074270;28;20793;-64
2021/12/28 05:37:06;;;;;;;1.17;0.97;;;22.20;63.60;;;;;;5074202;28;20444;-64
2021/12/28 05:39:33;;;;;;;1.10;0.90;;;22.20;63.50;;;;;;5074076;28;20846;-64
2021/12/28 05:42:00;;;;;;;1.10;0.70;;;22.20;63.60;;;;;;5074102;28;20915;-66
2021/12/28 05:44:27;;;;;;;1.00;0.80;;;22.20;63.60;;;;;;5074059;28;20444;-66
2021/12/28 05:46:56;;;;;;;1.10;0.83;;;22.20;63.60;;;;;;5073928;28;20464;-64
2021/12/28 05:49:22;;;;;;;1.30;1.00;;;22.20;63.60;;;;;;5074149;28;20444;-65
2021/12/28 05:51:49;;;;;;;0.97;0.87;;;22.20;63.60;;;;;;5074116;28;20474;-65
2021/12/28 05:54:17;;;;;;;1.33;0.93;;;22.20;63.60;;;;;;5073735;28;20440;-64
2021/12/28 05:56:44;;;;;;;1.03;0.80;;;22.20;63.60;;;;;;5073805;28;20923;-64
2021/12/28 05:59:11;;;;;;;1.70;1.17;;;22.20;63.60;;;;;;5073671;28;20492;-64
2021/12/28 06:01:38;;;;;;;1.17;0.90;;;22.20;63.60;;;;;;5073591;28;20447;-64
2021/12/28 06:04:07;;;;;;;1.10;0.80;;;22.20;63.60;;;;;;5074085;28;20445;-64
2021/12/28 06:06:34;;;;;;;1.10;0.93;;;22.20;63.60;;;;;;5073787;28;20494;-66
2021/12/28 06:09:01;;;;;;;1.20;0.90;;;22.20;63.60;;;;;;5073857;28;20444;-66
2021/12/28 06:11:27;;;;;;;1.10;0.70;;;22.20;63.60;;;;;;5073504;28;20449;-66
2021/12/28 06:13:54;;;;;;;1.20;1.00;;;22.20;63.60;;;;;;5073573;28;20438;-66
2021/12/28 06:16:21;;;;;;;1.13;0.70;;;22.20;63.70;;;;;;5073271;28;20962;-64
2021/12/28 06:18:48;;;;;;;1.10;0.90;;;22.20;63.60;;;;;;5072747;28;20486;-64
2021/12/28 06:21:16;;;;;;;1.00;0.77;;;22.20;63.60;;;;;;5073380;28;20443;-65
2021/12/28 06:23:43;;;;;;;1.40;1.20;;;22.20;63.60;;;;;;5073521;28;20835;-64
2021/12/28 06:26:10;;;;;;;1.33;0.90;;;22.20;63.70;;;;;;5073379;28;20444;-66
2021/12/28 06:28:36;;;;;;;1.13;1.03;;;22.20;63.60;;;;;;5073169;28;20440;-64
2021/12/28 06:31:04;;;;;;;1.10;0.90;;;22.20;63.60;;;;;;5073347;28;20958;-64
2021/12/28 06:33:30;;;;;;;1.30;0.90;;;22.20;63.70;;;;;;5073577;28;20445;-64
2021/12/28 06:35:57;;;;;;;1.00;0.73;;;22.30;63.80;;;;;;5073385;28;20494;-63
2021/12/28 06:38:25;;;;;;;1.03;0.80;;;22.20;63.60;;;;;;5073193;28;20477;-66
2021/12/28 06:40:52;;;;;;;1.00;0.90;;;22.20;63.70;;;;;;5073154;28;20440;-65
2021/12/28 06:43:18;;;;;;;1.80;1.17;;;22.30;63.80;;;;;;5073272;28;20832;-64
2021/12/28 06:45:45;;;;;;;1.30;1.07;;;22.30;63.80;;;;;;5073179;28;20461;-65
2021/12/28 06:48:12;;;;;;;1.23;1.10;;;22.30;63.80;;;;;;5073222;28;20822;-64
2021/12/28 06:50:39;;;;;;;1.10;0.90;;;22.30;63.80;;;;;;5073178;28;20448;-64
2021/12/28 06:53:05;;;;;;;1.20;0.90;;;22.30;63.80;;;;;;5073051;28;20954;-63
2021/12/28 06:55:34;;;;;;;1.27;0.83;;;22.20;63.70;;;;;;5073480;28;20448;-66
2021/12/28 06:58:00;;;;;;;1.97;0.90;;;22.20;63.70;;;;;;5073097;28;20437;-64
2021/12/28 07:00:27;;;;;;;1.13;1.00;;;22.20;63.70;;;;;;5072827;28;20791;-66
2021/12/28 07:02:54;;;;;;;1.60;1.10;;;22.30;63.80;;;;;;5073053;28;20437;-66
2021/12/28 07:05:21;;;;;;;1.07;0.97;;;22.30;63.80;;;;;;5072654;28;20852;-63
2021/12/28 07:07:47;;;;;;;1.90;1.00;;;22.20;63.70;;;;;;5072972;28;20437;-64
2021/12/28 07:10:14;;;;;;;2.30;1.10;;;22.30;64.40;;;;;;5073198;28;20463;-66
2021/12/28 07:12:44;;;;;;;6.17;1.00;;;22.30;65.70;;;;;;5073024;28;20433;-66
2021/12/28 07:15:10;;;;;;;1.93;1.27;;;22.20;65.60;;;;;;5072785;28;20456;-63
2021/12/28 07:17:37;;;;;;;1.30;0.97;;;22.10;65.50;;;;;;5072543;28;20477;-66
2021/12/28 07:20:05;;;;;;;1.70;0.93;;;22.10;65.50;;;;;;5072766;28;20558;-64
2021/12/28 07:22:31;;;;;;;2.20;1.00;;;22.10;65.50;;;;;;5072763;28;20940;-65
2021/12/28 07:24:58;;;;;;;4.40;0.90;;;22.10;65.60;;;;;;5072858;28;20459;-66
2021/12/28 07:27:25;;;;;;;1.40;0.90;;;22.10;65.60;;;;;;5072803;28;20447;-64
2021/12/28 07:29:53;;;;;;;1.70;1.00;;;22.10;65.50;;;;;;5075230;28;20448;-64
2021/12/28 07:32:19;;;;;;;1.30;0.70;;;22.00;65.50;;;;;;5076588;28;20437;-64
2021/12/28 07:34:46;;;;;;;1.30;1.10;;;22.00;65.50;;;;;;5076512;28;20443;-64
2021/12/28 07:37:13;;;;;;;1.00;0.70;;;22.00;65.60;;;;;;5076588;28;20433;-66
2021/12/28 07:39:40;;;;;;;1.20;0.90;;;22.00;65.60;;;;;;5076353;28;21179;-64
2021/12/28 07:42:07;;;;;;;1.30;1.00;;;22.00;65.60;;;;;;5076435;28;20451;-64
2021/12/28 07:44:35;;;;;;;1.93;0.70;;;22.00;65.60;;;;;;5076468;28;20770;-63
2021/12/28 07:47:04;;;;;;;4.60;1.00;;;21.90;65.50;;;;;;5076236;28;20445;-63
2021/12/28 07:49:31;;;;;;;2.67;1.43;;;21.90;65.50;;;;;;5076314;28;20828;-64
2021/12/28 07:51:58;;;;;;;1.70;1.10;;;21.90;65.50;;;;;;5076135;28;20451;-65
2021/12/28 07:54:25;;;;;;;1.10;0.70;;;21.90;65.50;;;;;;5076076;28;20445;-64
2021/12/28 07:56:51;;;;;;;1.40;1.00;;;21.90;65.50;;;;;;5076019;28;20788;-64
2021/12/28 07:59:18;;;;;;;1.40;1.07;;;21.90;65.50;;;;;;5075889;28;20472;-66
2021/12/28 08:01:45;;;;;;;2.03;0.80;;;22.00;65.60;;;;;;5075801;28;20439;-66
2021/12/28 08:04:13;;;;;;;1.13;1.00;;;22.00;65.60;;;;;;5075691;28;20445;-63
2021/12/28 08:06:40;;;;;;;1.10;0.90;;;22.00;65.60;;;;;;5075787;28;20437;-63
2021/12/28 08:09:07;;;;;;;1.63;1.00;;;22.10;65.60;;;;;;5076039;28;20448;-64
2021/12/28 08:11:34;;;;;;;1.47;1.13;;;22.10;65.60;;;;;;5075221;28;20448;-65
2021/12/28 08:14:01;;;;;;;3.70;1.00;;;22.10;65.90;;;;;;5074116;28;20448;-66
2021/12/28 08:16:28;;;;;;;2.07;1.20;;;22.10;65.70;;;;;;5074317;28;20463;-63
2021/12/28 08:18:55;;;;;;;3.20;1.00;;;22.10;65.70;;;;;;5074474;28;20488;-63
2021/12/28 08:21:23;;;;;;;2.70;0.90;;;22.00;65.70;;;;;;5074326;28;20448;-64
2021/12/28 08:23:50;;;;;;;1.40;1.00;;;22.00;65.80;;;;;;5073320;28;20448;-64
2021/12/28 08:26:17;;;;;;;5.53;1.20;;;21.90;65.90;;;;;;5073682;28;21081;-64
2021/12/28 08:28:44;;;;;;;1.43;0.90;;;21.90;65.90;;;;;;5074664;28;20941;-63
2021/12/28 08:31:11;;;;;;;2.60;1.07;;;21.90;65.80;;;;;;5075201;28;20444;-64
2021/12/28 08:33:38;;;;;;;1.90;1.10;;;21.90;65.90;;;;;;5075197;28;20447;-64
2021/12/28 08:36:05;;;;;;;1.13;0.90;;;21.90;65.90;;;;;;5075273;28;20440;-64
2021/12/28 08:38:33;;;;;;;1.80;1.10;;;21.90;65.90;;;;;;5075065;28;20436;-64
2021/12/28 08:41:00;;;;;;;2.70;1.33;;;21.90;65.80;;;;;;5074364;28;20459;-64
2021/12/28 08:43:27;;;;;;;1.20;1.07;;;21.90;65.80;;;;;;5075317;28;20460;-64
2021/12/28 08:45:53;;;;;;;1.17;0.80;;;21.90;65.80;;;;;;5075219;28;20467;-64
2021/12/28 08:48:20;;;;;;;1.30;1.10;;;21.90;65.80;;;;;;5075407;28;20907;-64
2021/12/28 08:50:47;;;;;;;2.23;1.10;;;21.90;65.80;;;;;;5075268;28;20775;-64
2021/12/28 08:53:14;;;;;;;2.47;1.10;;;21.90;65.80;;;;;;5075248;28;20451;-64
2021/12/28 08:55:43;;;;;;;1.23;1.03;;;21.90;65.80;;;;;;5074970;28;20440;-64
2021/12/28 08:58:10;;;;;;;1.43;0.93;;;21.90;65.80;;;;;;5074899;28;20934;-64
2021/12/28 09:00:38;;;;;;;1.20;0.93;;;21.90;65.80;;;;;;5074722;28;20491;-64
2021/12/28 09:03:06;;;;;;;2.40;1.27;;;21.90;65.80;;;;;;5074882;28;20464;-64
2021/12/28 09:05:33;;;;;;;1.30;1.10;;;21.90;65.80;;;;;;5074841;28;20440;-64
2021/12/28 09:08:04;;;;;;;1.10;0.90;;;21.90;66.00;;;;;;5074865;28;20793;-64
2021/12/28 09:10:31;;;;;;;3.00;1.10;;;21.90;65.90;;;;;;5074657;28;20996;-64
2021/12/28 09:12:59;;;;;;;1.40;0.97;;;21.90;65.80;;;;;;5074663;28;20471;-64
2021/12/28 09:15:26;;;;;;;1.50;0.90;;;21.90;65.80;;;;;;5074577;28;20465;-64
2021/12/28 09:17:52;;;;;;;2.30;0.87;;;21.90;65.80;;;;;;5074382;28;20472;-64
2021/12/28 09:20:23;;;;;;;1.70;1.10;;;21.90;65.80;;;;;;5074375;28;20545;-64
2021/12/28 09:22:51;;;;;;;1.43;1.20;;;21.90;65.80;;;;;;5074493;28;20905;-64
2021/12/28 09:25:18;;;;;;;1.77;1.00;;;21.90;65.70;;;;;;5074289;28;20436;-64
2021/12/28 09:27:45;;;;;;;2.13;1.30;;;21.90;65.80;;;;;;5074333;28;20448;-64
2021/12/28 09:30:15;;;;;;;1.63;1.03;;;21.90;65.80;;;;;;5074333;28;20440;-64
2021/12/28 09:32:42;;;;;;;1.00;0.90;;;21.90;65.80;;;;;;5074244;28;20966;-63
2021/12/28 09:35:09;;;;;;;1.10;1.00;;;21.90;65.80;;;;;;5074266;28;20432;-63
2021/12/28 09:37:36;;;;;;;1.97;1.33;;;21.90;65.80;;;;;;5074212;28;20440;-64
2021/12/28 09:40:06;;;;;;;1.30;0.97;;;21.90;65.90;;;;;;5074032;28;20480;-64
2021/12/28 09:42:33;;;;;;;1.50;1.23;;;21.90;65.90;;;;;;5074197;28;20453;-64
2021/12/28 09:44:59;;;;;;;1.40;1.27;;;21.90;65.90;;;;;;5073808;28;20457;-64
2021/12/28 09:47:27;;;;;;;1.63;1.00;;;21.90;65.90;;;;;;5073942;28;20452;-64
2021/12/28 09:49:54;;;;;;;1.40;1.30;;;22.00;65.90;;;;;;5073890;28;20506;-63
2021/12/28 09:52:21;;;;;;;3.40;1.50;;;21.90;65.90;;;;;;5073697;28;20441;-64
2021/12/28 09:54:48;;;;;;;4.37;2.60;;;21.90;66.40;;;;;;5073870;28;20541;-66
2021/12/28 09:57:15;;;;;;;6.67;5.07;;;22.00;66.70;;;;;;5073359;28;20447;-67
2021/12/28 09:59:42;;;;;;;5.53;3.87;;;22.00;67.20;;;;;;5071988;28;20972;-67
2021/12/28 10:02:11;;;;;;;6.87;4.27;;;22.10;67.40;;;;;;5070384;28;20444;-66
2021/12/28 10:04:53;;;;;;;9.70;4.40;;;22.10;67.20;;;;;;5062167;28;20445;-67
2021/12/28 10:07:22;;;;;;;7.60;4.60;;;22.10;67.30;;;;;;5062440;28;20448;-66
2021/12/28 10:09:49;;;;;;;7.20;5.50;;;22.20;67.20;;;;;;5062952;28;20436;-67
2021/12/28 10:12:28;;;;;;;5.87;3.90;;;22.20;67.10;;;;;;5061379;28;20442;-67
2021/12/28 10:14:56;;;;;;;5.60;4.23;;;22.20;67.10;;;;;;5052077;28;20477;-68
2021/12/28 10:17:28;;;;;;;10.67;6.20;;;22.20;67.20;;;;;;5051832;28;20992;-67
2021/12/28 10:19:56;;;;;;;6.73;4.90;;;22.20;67.30;;;;;;5052570;28;20491;-67
2021/12/28 10:22:28;;;;;;;6.30;4.90;;;22.20;67.30;;;;;;5052445;28;20528;-67
2021/12/28 10:24:58;;;;;;;9.77;5.00;;;22.20;67.20;;;;;;5052964;28;20924;-67
2021/12/28 10:27:28;;;;;;;6.60;4.80;;;22.20;67.30;;;;;;5053329;28;20437;-69
2021/12/28 10:30:01;;;;;;;6.70;5.30;;;22.20;67.20;;;;;;5053192;28;20522;-67
2021/12/28 10:32:29;;;;;;;8.00;5.47;;;22.30;67.20;;;;;;5053403;28;20445;-67
2021/12/28 10:35:00;;;;;;;16.47;6.53;;;22.30;67.40;;;;;;5053560;28;20448;-68
2021/12/28 10:37:31;;;;;;;10.30;6.60;;;22.30;67.90;;;;;;5052957;28;20921;-68
2021/12/28 10:39:59;;;;;;;10.10;6.33;;;22.30;67.70;;;;;;5052911;28;20485;-67
2021/12/28 10:42:42;;;;;;;9.93;5.63;;;22.30;67.90;;;;;;5053194;28;20469;-68
2021/12/28 10:45:12;;;;;;;10.73;4.80;;;22.30;68.00;;;;;;5053226;28;20805;-67
2021/12/28 10:47:39;;;;;;;14.30;7.27;;;22.30;67.20;;;;;;5053378;28;20843;-67
2021/12/28 10:50:25;;;;;;;9.27;5.50;;;22.30;67.90;;;;;;5052955;28;20955;-67
2021/12/28 10:53:04;;;;;;;9.20;5.43;;;22.40;67.80;;;;;;5053195;28;20940;-67
2021/12/28 10:55:31;;;;;;;7.83;5.07;;;22.40;67.70;;;;;;5053044;28;20468;-67
2021/12/28 10:57:58;;;;;;;7.47;6.13;;;22.30;67.40;;;;;;5053121;28;20437;-67
2021/12/28 11:00:29;;;;;;;8.30;5.13;;;22.30;67.30;;;;;;5052973;28;20477;-67
2021/12/28 11:03:19;;;;;;;14.37;5.30;;;22.30;67.30;;;;;;5053164;28;20437;-67
2021/12/28 11:05:49;;;;;;;9.07;6.13;;;22.30;67.20;;;;;;5057132;28;20912;-67
2021/12/28 11:08:16;;;;;;;9.90;4.73;;;22.30;67.20;;;;;;5057081;28;20437;-67
2021/12/28 11:10:46;;;;;;;6.70;5.07;;;22.30;67.20;;;;;;5056964;28;20438;-67
2021/12/28 11:13:14;;;;;;;8.67;5.27;;;22.30;67.00;;;;;;5056991;28;20446;-66
2021/12/28 11:15:46;;;;;;;9.10;6.30;;;22.30;67.00;;;;;;5056696;28;20461;-66
2021/12/28 11:18:21;;;;;;;7.73;4.57;;;22.30;67.00;;;;;;5056777;28;20479;-67
2021/12/28 11:20:50;;;;;;;9.73;4.60;;;22.30;66.90;;;;;;5056516;28;20490;-67
2021/12/28 11:23:19;;;;;;;11.27;5.30;;;22.20;66.80;;;;;;5056700;28;20440;-67
2021/12/28 11:25:46;;;;;;;9.23;4.60;;;22.20;66.80;;;;;;5056642;28;20510;-67
2021/12/28 11:28:19;;;;;;;8.83;4.50;;;22.30;66.90;;;;;;5056745;28;20441;-67
2021/12/28 11:31:15;;;;;;;5.47;4.90;;;22.30;66.80;;;;;;5056408;28;20441;-67
2021/12/28 11:33:53;;;;;;;6.70;4.23;;;22.30;66.70;;;;;;5055945;28;20445;-67
2021/12/28 11:36:23;;;;;;;9.63;4.70;;;22.30;66.80;;;;;;5057011;28;20441;-67
2021/12/28 11:38:50;;;;;;;7.97;5.07;;;22.20;67.20;;;;;;5068475;28;20433;-67
2021/12/28 11:41:17;;;;;;;6.10;4.37;;;22.20;67.20;;;;;;5065930;28;20476;-66
2021/12/28 11:43:46;;;;;;;4.50;3.10;;;22.20;67.40;;;;;;5065114;28;20533;-65
2021/12/28 11:46:14;;;;;;;4.67;3.50;;;22.20;66.20;;;;;;5075400;28;20460;-66
2021/12/28 11:48:43;;;;;;;4.90;4.00;;;22.30;65.90;;;;;;5061988;28;20442;-65
2021/12/28 11:51:11;;;;;;;5.97;3.63;;;22.30;65.50;;;;;;5061610;28;20924;-65
2021/12/28 11:53:46;;;;;;;4.07;2.93;;;22.30;65.30;;;;;;5062484;28;20792;-66
2021/12/28 11:56:14;;;;;;;4.00;3.37;;;22.40;65.20;;;;;;5075930;28;20498;-65
2021/12/28 11:58:52;;;;;;;6.37;3.27;;;22.40;65.10;;;;;;5072804;28;20436;-65
2021/12/28 12:01:41;;;;;;;4.13;2.87;;;22.50;65.00;;;;;;5055690;28;20488;-66
2021/12/28 12:04:58;;;;;;;7.00;2.70;;;22.50;64.90;;;;;;5055823;28;20458;-66
2021/12/28 12:07:31;;;;;;;7.40;3.17;;;22.50;64.80;;;;;;5054805;28;20437;-65
2021/12/28 12:10:21;;;;;;;3.13;2.83;;;22.50;64.90;;;;;;5055836;28;20457;-65
2021/12/28 12:12:54;;;;;;;4.03;2.20;;;22.50;64.70;;;;;;5055834;28;20441;-66
2021/12/28 12:15:23;;;;;;;4.53;2.90;;;22.50;64.70;;;;;;5054544;28;20466;-66
2021/12/28 12:17:50;;;;;;;5.07;3.10;;;22.50;64.70;;;;;;5055652;28;20824;-66
2021/12/28 12:20:30;;;;;;;4.03;2.40;;;22.50;64.60;;;;;;5055715;28;20488;-66
2021/12/28 12:23:09;;;;;;;3.47;2.77;;;22.60;64.60;;;;;;5055577;28;20445;-65
2021/12/28 12:25:57;;;;;;;3.57;2.43;;;22.60;64.60;;;;;;5055843;28;20438;-65
2021/12/28 12:28:32;;;;;;;3.20;2.50;;;22.60;64.50;;;;;;5061692;28;20436;-65
2021/12/28 12:31:01;;;;;;;3.17;2.57;;;22.60;64.60;;;;;;5066522;28;20448;-66
2021/12/28 12:33:36;;;;;;;2.83;2.07;;;22.60;64.60;;;;;;5065817;28;20938;-66
2021/12/28 12:36:04;;;;;;;3.40;2.30;;;22.60;64.50;;;;;;5065523;28;21805;-65
2021/12/28 12:38:37;;;;;;;4.43;1.80;;;22.60;64.60;;;;;;5072777;28;20437;-66
2021/12/28 12:41:12;;;;;;;3.27;2.30;;;22.60;64.50;;;;;;5075057;28;20482;-65
2021/12/28 12:43:45;;;;;;;2.60;2.20;;;22.60;64.40;;;;;;5075450;28;20446;-65
2021/12/28 12:46:17;;;;;;;2.37;2.13;;;22.60;64.40;;;;;;5075128;28;20461;-66
2021/12/28 12:49:02;;;;;;;2.40;2.20;;;22.60;64.30;;;;;;5075475;28;20441;-66
2021/12/28 12:51:48;;;;;;;2.37;2.00;;;22.70;64.40;;;;;;5074418;28;20444;-66
2021/12/28 12:54:22;;;;;;;1.97;1.77;;;22.70;64.40;;;;;;5074515;28;20919;-65